»·PEaware :: N333ZA KHQM-KRNT

N333ZA :: KHQM-KRNT

FLIGHT INFORMATION

Flight Status: Arrived
Operator: Privately registered:
United States
More flights under this callsign
Pilot: Judd H. (29974)
Aircraft: CESSNA 210 CENTURION
(C210)
More flights by this aircraft type
Origin: KHQM Bowerman
United States
Destination: KRNT Renton Mun
United States
More flights between these airports :: More routes between these airports
Route: +OZALU V27 SEA LUTSY
File this flight plan on PilotEdge
Remarks:
Altitude:
(Current/Filed)
15,000ft
Speed:
(Current/Filed)
150kts
Departed: 07-Nov-20 06:04 PM
Arrived: 07-Nov-20 06:47 PM
Distance/Time
Traveled:
77nm/0:43
Distance/Time
To Go:
Arrived

Flight Plot

Page will automatically refresh every two minutes.

Flight plan parsing failed; only flown route is shown


Map Options




Map Legend


Flown Route
Filed Route
Departure Airport
Arrival Airport
Navaid (VOR, NDB)
Fix

Horizontal Profiles

Position Reports

Time Latitude Longitude Heading Altitude Ground
Speed
07-Nov-20 17:55 46.972934 -123.933667 164 17ft 0kts
07-Nov-20 17:56 46.972934 -123.933667 164 17ft 0kts
07-Nov-20 17:57 46.972934 -123.933667 164 17ft 0kts
07-Nov-20 17:58 46.972934 -123.933667 164 17ft 0kts
07-Nov-20 17:59 46.972934 -123.933667 164 17ft 0kts
07-Nov-20 18:00 46.972306 -123.935986 259 17ft 28kts
07-Nov-20 18:01 46.971149 -123.945654 247 17ft 14kts
07-Nov-20 18:02 46.970308 -123.946469 168 17ft 0kts
07-Nov-20 18:03 46.970422 -123.943062 81 18ft 59kts
07-Nov-20 18:04 46.976096 -123.898141 78 1032ft 133kts
07-Nov-20 18:05 46.992492 -123.852672 45 2370ft 132kts
07-Nov-20 18:06 47.017108 -123.811560 46 3644ft 132kts
07-Nov-20 18:07 47.041174 -123.769586 50 4976ft 130kts
07-Nov-20 18:08 47.061735 -123.724218 49 6129ft 144kts
07-Nov-20 18:09 47.079266 -123.668266 66 7080ft 155kts
07-Nov-20 18:10 47.092823 -123.609042 62 8083ft 150kts
07-Nov-20 18:11 47.106391 -123.551989 58 9077ft 145kts
07-Nov-20 18:12 47.122474 -123.498002 57 10077ft 144kts
07-Nov-20 18:13 47.137628 -123.443385 58 11076ft 144kts
07-Nov-20 18:14 47.152773 -123.388539 58 12074ft 144kts
07-Nov-20 18:15 47.166174 -123.332710 63 13070ft 145kts
07-Nov-20 18:16 47.179596 -123.277270 57 14066ft 142kts
07-Nov-20 18:17 47.195190 -123.223688 56 14941ft 148kts
07-Nov-20 18:18 47.213642 -123.161706 60 15004ft 181kts
07-Nov-20 18:19 47.232362 -123.090532 62 14999ft 189kts
07-Nov-20 18:20 47.251092 -123.017090 61 15000ft 191kts
07-Nov-20 18:21 47.270417 -122.944703 60 15001ft 190kts
07-Nov-20 18:22 47.290617 -122.872458 60 15002ft 190kts
07-Nov-20 18:23 47.310255 -122.800170 62 15003ft 191kts
07-Nov-20 18:24 47.327852 -122.725537 64 15005ft 192kts
07-Nov-20 18:25 47.345106 -122.649460 63 14559ft 198kts
07-Nov-20 18:26 47.366991 -122.577543 59 13852ft 185kts
07-Nov-20 18:27 47.385465 -122.507522 61 13149ft 181kts
07-Nov-20 18:28 47.401509 -122.436754 64 12450ft 182kts
07-Nov-20 18:29 47.417150 -122.366175 60 11753ft 178kts
07-Nov-20 18:30 47.440022 -122.302634 53 11059ft 173kts
07-Nov-20 18:31 47.477290 -122.271672 356 10382ft 155kts
07-Nov-20 18:32 47.520284 -122.269310 4 9685ft 154kts
07-Nov-20 18:33 47.562309 -122.259805 3 8989ft 150kts
07-Nov-20 18:34 47.603709 -122.254759 2 8292ft 152kts
07-Nov-20 18:35 47.644527 -122.249914 2 7581ft 137kts
07-Nov-20 18:36 47.678965 -122.234101 52 6892ft 145kts
07-Nov-20 18:37 47.676495 -122.174963 118 6230ft 169kts
07-Nov-20 18:38 47.678517 -122.126929 0 5576ft 125kts
07-Nov-20 18:39 47.700483 -122.159219 249 4846ft 161kts
07-Nov-20 18:40 47.682287 -122.216081 257 4331ft 148kts
07-Nov-20 18:41 47.644317 -122.238381 172 3696ft 167kts
07-Nov-20 18:42 47.599561 -122.231197 174 2757ft 164kts
07-Nov-20 18:43 47.556756 -122.224913 174 1656ft 140kts
07-Nov-20 18:44 47.525213 -122.220517 173 710ft 108kts
07-Nov-20 18:45 47.497334 -122.216395 174 30ft 83kts
07-Nov-20 18:46 47.490236 -122.216807 345 26ft 12kts
07-Nov-20 18:47 47.493153 -122.215650 59 26ft 13kts
07-Nov-20 18:48 47.492340 -122.213584 0 26ft 2kts
07-Nov-20 18:49 47.492345 -122.213584 2 26ft 0kts
07-Nov-20 18:51 47.492345 -122.213584 2 26ft 0kts
07-Nov-20 18:52 47.492345 -122.213584 2 26ft 0kts
07-Nov-20 18:53 47.492345 -122.213584 2 26ft 0kts
07-Nov-20 18:54 47.492345 -122.213584 2 26ft 0kts
07-Nov-20 18:55 47.492345 -122.213584 2 26ft 0kts

Navigation Log

Ident Type
Flight plan parsing failed, navigation log unavailable